Flight Track Log - Related Links

Times and Time Zones

All times are in EDT time to prevent confusion due to time zone crossing. See the IBE3336 flight status page for this flight to view local times or setup timezone preferences in your user account.

Time Position Orientation Groundspeed Altitude Reporting Facility
EDT Latitude Longitude Course Direction KTS MPH feet Rate Location/Type
Tue 11:10:00 AM 35.7554 -2.3129 168° South  Level Estimated
Tue 11:11:00 AM 35.6397 -2.2842 169° South  Level Estimated
Tue 11:12:00 AM 35.5240 -2.2557 169° South  Level Estimated
Tue 11:13:00 AM 35.4082 -2.2272 169° South  Level Estimated
Tue 11:14:00 AM 35.2925 -2.1988 169° South  Level Estimated
Tue 11:15:00 AM 35.1767 -2.1705 169° South  Level Estimated
Tue 11:16:00 AM 35.0610 -2.1422 169° South  Level Estimated
Tue 11:17:00 AM 34.9452 -2.1141 169° South  Level Estimated
Tue 11:18:00 AM 34.8294 -2.0860 169° South  Level Estimated
Tue 11:19:00 AM 34.7137 -2.0580 169° South  Level Estimated
Tue 11:20:00 AM 34.5979 -2.0301 169° South  Level Estimated
Tue 11:21:00 AM 34.4821 -2.0022 169° South  Level Estimated
Tue 11:22:00 AM 34.3663 -1.9744 169° South  Level Estimated
Tue 11:23:00 AM 34.2505 -1.9468 169° South  Level Estimated
Tue 11:24:00 AM 34.1347 -1.9191 169° South  Level Estimated
Tue 11:25:00 AM 34.0189 -1.8916 169° South  Level Estimated
Tue 11:26:00 AM 33.9031 -1.8641 169° South  Level Estimated
Tue 11:27:00 AM 33.7873 -1.8367 169° South  Level Estimated
Tue 11:28:00 AM 33.6714 -1.8094 169° South  Level Estimated
Tue 11:29:00 AM 33.5556 -1.7822 169° South  Level Estimated
Tue 11:30:00 AM 33.4397 -1.7550 169° South  Level Estimated
Tue 11:31:00 AM 33.3239 -1.7279 169° South  Level Estimated
Tue 11:32:00 AM 33.2080 -1.7009 169° South  Level Estimated
Tue 11:33:00 AM 33.0922 -1.6739 169° South  Level Estimated
Tue 11:34:00 AM 32.9763 -1.6470 169° South  Level Estimated
Tue 11:35:00 AM 32.8604 -1.6202 169° South  Level Estimated
Tue 11:36:00 AM 32.7446 -1.5935 169° South  Level Estimated
Tue 11:37:00 AM 32.6287 -1.5668 169° South  Level Estimated
Tue 11:38:00 AM 32.5128 -1.5402 169° South  Level Estimated
Tue 11:39:00 AM 32.3969 -1.5137 169° South  Level Estimated
Tue 11:40:00 AM 32.2810 -1.4872 169° South  Level Estimated
Tue 11:41:00 AM 32.1651 -1.4608 169° South  Level Estimated
Tue 11:42:00 AM 32.0492 -1.4345 169° South  Level Estimated
Tue 11:43:00 AM 31.9333 -1.4082 169° South  Level Estimated
Tue 11:44:00 AM 31.8173 -1.3820 169° South  Level Estimated
Tue 11:45:00 AM 31.7014 -1.3558 169° South  Level Estimated
Tue 11:46:00 AM 31.5855 -1.3298 169° South  Level Estimated
Tue 11:47:00 AM 31.4695 -1.3038 169° South  Level Estimated
Tue 11:48:00 AM 31.3536 -1.2778 169° South  Level Estimated
Tue 11:49:00 AM 31.2376 -1.2520 169° South  Level Estimated
Tue 11:50:00 AM 31.1217 -1.2261 169° South  Level Estimated
Tue 11:51:00 AM 31.0057 -1.2004 169° South  Level Estimated
Tue 11:52:00 AM 30.8898 -1.1747 169° South  Level Estimated
Tue 11:53:00 AM 30.7738 -1.1491 169° South  Level Estimated
Tue 11:54:00 AM 30.6578 -1.1235 169° South  Level Estimated
Tue 11:55:00 AM 30.5419 -1.0980 169° South  Level Estimated
Tue 11:56:00 AM 30.4259 -1.0726 169° South  Level Estimated
Tue 11:57:00 AM 30.3099 -1.0472 169° South  Level Estimated
Tue 11:58:00 AM 30.1939 -1.0219 169° South  Level Estimated
Tue 11:59:00 AM 30.0779 -0.9966 169° South  Level Estimated
Tue 12:00:00 PM 29.9619 -0.9714 169° South  Level Estimated
Tue 12:01:00 PM 29.8459 -0.9463 169° South  Level Estimated
Tue 12:02:00 PM 29.7299 -0.9212 169° South  Level Estimated
Tue 12:03:00 PM 29.6139 -0.8961 169° South  Level Estimated
Tue 12:04:00 PM 29.4978 -0.8712 169° South  Level Estimated
Tue 12:05:00 PM 29.3818 -0.8463 169° South  Level Estimated
Tue 12:06:00 PM 29.2658 -0.8214 169° South  Level Estimated
Tue 12:07:00 PM 29.1497 -0.7966 169° South  Level Estimated
Tue 12:08:00 PM 29.0337 -0.7719 169° South  Level Estimated
Tue 12:09:00 PM 28.9177 -0.7472 169° South  Level Estimated
Tue 12:10:00 PM 28.8016 -0.7225 169° South  Level Estimated
Tue 12:11:00 PM 28.6856 -0.6980 169° South  Level Estimated
Tue 12:12:00 PM 28.5695 -0.6734 169° South  Level Estimated
Tue 12:13:00 PM 28.4534 -0.6490 169° South  Level Estimated
Tue 12:14:00 PM 28.3374 -0.6246 170° South  Level Estimated
Tue 12:15:00 PM 28.2213 -0.6002 170° South  Level Estimated
Tue 12:16:00 PM 28.1052 -0.5759 170° South  Level Estimated
Tue 12:17:00 PM 27.9891 -0.5516 170° South  Level Estimated
Tue 12:18:00 PM 27.8731 -0.5274 170° South  Level Estimated
Tue 12:19:00 PM 27.7570 -0.5033 170° South  Level Estimated
Tue 12:20:00 PM 27.6409 -0.4792 170° South  Level Estimated
Tue 12:21:00 PM 27.5248 -0.4551 170° South  Level Estimated
Tue 12:22:00 PM 27.4087 -0.4311 170° South  Level Estimated
Tue 12:23:00 PM 27.2926 -0.4072 170° South  Level Estimated
Tue 12:24:00 PM 27.1765 -0.3833 170° South  Level Estimated
Tue 12:25:00 PM 27.0603 -0.3594 170° South  Level Estimated
Tue 12:26:00 PM 26.9442 -0.3356 170° South  Level Estimated
Tue 12:27:00 PM 26.8281 -0.3119 170° South  Level Estimated
Tue 12:28:00 PM 26.7120 -0.2882 170° South  Level Estimated
Tue 12:29:00 PM 26.5958 -0.2645 170° South  Level Estimated
Tue 12:30:00 PM 26.4797 -0.2409 170° South  Level Estimated
Tue 12:31:00 PM 26.3636 -0.2173 170° South  Level Estimated
Tue 12:32:00 PM 26.2474 -0.1938 170° South  Level Estimated
Tue 12:33:00 PM 26.1313 -0.1704 170° South  Level Estimated
Tue 12:34:00 PM 26.0151 -0.1469 170° South  Level Estimated
Tue 12:35:00 PM 25.8990 -0.1236 170° South  Level Estimated
Tue 12:36:00 PM 25.7828 -0.1002 170° South  Level Estimated
Tue 12:37:00 PM 25.6667 -0.0770 170° South  Level Estimated
Tue 12:38:00 PM 25.5505 -0.0537 170° South  Level Estimated
Tue 12:39:00 PM 25.4343 -0.0305 170° South  Level Estimated
Tue 12:40:00 PM 25.3182 -0.0074 170° South  Level Estimated
Tue 12:41:00 PM 25.2020 0.0157 170° South  Level Estimated
Tue 12:42:00 PM 25.0858 0.0388 170° South  Level Estimated
Tue 12:43:00 PM 24.9696 0.0618 170° South  Level Estimated
Tue 12:44:00 PM 24.8535 0.0848 170° South  Level Estimated
Tue 12:45:00 PM 24.7373 0.1077 170° South  Level Estimated
Tue 12:46:00 PM 24.6211 0.1306 170° South  Level Estimated
Tue 12:47:00 PM 24.5049 0.1534 170° South  Level Estimated
Tue 12:48:00 PM 24.3887 0.1762 170° South  Level Estimated
Tue 12:49:00 PM 24.2725 0.1990 170° South  Level Estimated
Tue 12:50:00 PM 24.1563 0.2217 170° South  Level Estimated
Tue 12:51:00 PM 24.0401 0.2444 170° South  Level Estimated
Tue 12:52:00 PM 23.9238 0.2670 170° South  Level Estimated
Tue 12:53:00 PM 23.8076 0.2896 170° South  Level Estimated
Tue 12:54:00 PM 23.6914 0.3121 170° South  Level Estimated
Tue 12:55:00 PM 23.5752 0.3346 170° South  Level Estimated
Tue 12:56:00 PM 23.4590 0.3571 170° South  Level Estimated
Tue 12:57:00 PM 23.3427 0.3795 170° South  Level Estimated
Tue 12:58:00 PM 23.2265 0.4019 170° South  Level Estimated
Tue 12:59:00 PM 23.1103 0.4243 170° South  Level Estimated
Tue 01:00:00 PM 22.9940 0.4466 170° South  Level Estimated
Tue 01:01:00 PM 22.8778 0.4689 170° South  Level Estimated
Tue 01:02:00 PM 22.7615 0.4911 170° South  Level Estimated
Tue 01:03:00 PM 22.6453 0.5133 170° South  Level Estimated
Tue 01:04:00 PM 22.5290 0.5355 170° South  Level Estimated
Tue 01:05:00 PM 22.4128 0.5576 170° South  Level Estimated
Tue 01:06:00 PM 22.2965 0.5797 170° South  Level Estimated
Tue 01:07:00 PM 22.1803 0.6018 170° South  Level Estimated
Tue 01:08:00 PM 22.0640 0.6238 170° South  Level Estimated
Tue 01:09:00 PM 21.9477 0.6458 170° South  Level Estimated
Tue 01:10:00 PM 21.8315 0.6677 170° South  Level Estimated
Tue 01:11:00 PM 21.7152 0.6896 170° South  Level Estimated
Tue 01:12:00 PM 21.5989 0.7115 170° South  Level Estimated
Tue 01:13:00 PM 21.4827 0.7333 170° South  Level Estimated
Tue 01:14:00 PM 21.3664 0.7551 170° South  Level Estimated
Tue 01:15:00 PM 21.2501 0.7769 170° South  Level Estimated
Tue 01:16:00 PM 21.1338 0.7986 170° South  Level Estimated
Tue 01:17:00 PM 21.0175 0.8203 170° South  Level Estimated
Tue 01:18:00 PM 20.9012 0.8420 170° South  Level Estimated
Tue 01:19:00 PM 20.7849 0.8636 170° South  Level Estimated
Tue 01:20:00 PM 20.6686 0.8852 170° South  Level Estimated
Tue 01:21:00 PM 20.5523 0.9068 170° South  Level Estimated
Tue 01:22:00 PM 20.4360 0.9283 170° South  Level Estimated
Tue 01:23:00 PM 20.3197 0.9498 170° South  Level Estimated
Tue 01:24:00 PM 20.2034 0.9713 170° South  Level Estimated
Tue 01:25:00 PM 20.0871 0.9927 170° South  Level Estimated
Tue 01:26:00 PM 19.9708 1.0142 170° South  Level Estimated
Tue 01:27:00 PM 19.8545 1.0355 170° South  Level Estimated
Tue 01:28:00 PM 19.7382 1.0569 170° South  Level Estimated
Tue 01:29:00 PM 19.6218 1.0782 170° South  Level Estimated
Tue 01:30:00 PM 19.5055 1.0995 170° South  Level Estimated
Tue 01:31:00 PM 19.3892 1.1207 170° South  Level Estimated
Tue 01:32:00 PM 19.2729 1.1419 170° South  Level Estimated
Tue 01:33:00 PM 19.1565 1.1631 170° South  Level Estimated
Tue 01:34:00 PM 19.0402 1.1843 170° South  Level Estimated
Tue 01:35:00 PM 18.9239 1.2054 170° South  Level Estimated
Tue 01:36:00 PM 18.8076 1.2265 170° South  Level Estimated
Tue 01:37:00 PM 18.6912 1.2476 170° South  Level Estimated
Tue 01:38:00 PM 18.5749 1.2686 170° South  Level Estimated
Tue 01:39:00 PM 18.4585 1.2896 170° South  Level Estimated
Tue 01:40:00 PM 18.3422 1.3106 170° South  Level Estimated
Tue 01:41:00 PM 18.2258 1.3316 170° South  Level Estimated
Tue 01:42:00 PM 18.1095 1.3525 170° South  Level Estimated
Tue 01:43:00 PM 17.9931 1.3734 170° South  Level Estimated
Tue 01:44:00 PM 17.8768 1.3943 170° South  Level Estimated
Tue 01:45:00 PM 17.7604 1.4151 170° South  Level Estimated
Tue 01:46:00 PM 17.6441 1.4360 170° South  Level Estimated
Tue 01:47:00 PM 17.5277 1.4567 170° South  Level Estimated
Tue 01:48:00 PM 17.4113 1.4775 170° South  Level Estimated
Tue 01:49:00 PM 17.2950 1.4983 170° South  Level Estimated
Tue 01:50:00 PM 17.1786 1.5190 170° South  Level Estimated
Tue 01:51:00 PM 17.0622 1.5396 170° South  Level Estimated
Tue 01:52:00 PM 16.9459 1.5603 170° South  Level Estimated
Tue 01:53:00 PM 16.8295 1.5810 170° South  Level Estimated
Tue 01:54:00 PM 16.7131 1.6016 170° South  Level Estimated
Tue 01:55:00 PM 16.5967 1.6221 170° South  Level Estimated
Tue 01:56:00 PM 16.4803 1.6427 170° South  Level Estimated
Tue 01:57:00 PM 16.3640 1.6632 170° South  Level Estimated
Tue 01:58:00 PM 16.2476 1.6838 170° South  Level Estimated
Tue 01:59:00 PM 16.1312 1.7042 170° South  Level Estimated
Tue 02:00:00 PM 16.0148 1.7247 170° South  Level Estimated
Tue 02:01:00 PM 15.8984 1.7451 170° South  Level Estimated
Tue 02:02:00 PM 15.7820 1.7656 170° South  Level Estimated
Tue 02:03:00 PM 15.6656 1.7860 170° South  Level Estimated
Tue 02:04:00 PM 15.5492 1.8063 170° South  Level Estimated
Tue 02:05:00 PM 15.4328 1.8267 170° South  Level Estimated
Tue 02:06:00 PM 15.3164 1.8470 170° South  Level Estimated
Tue 02:07:00 PM 15.2000 1.8673 170° South  Level Estimated
Tue 02:08:00 PM 15.0836 1.8876 170° South  Level Estimated
Tue 02:09:00 PM 14.9672 1.9078 170° South  Level Estimated
Tue 02:10:00 PM 14.8508 1.9281 170° South  Level Estimated
Tue 02:11:00 PM 14.7344 1.9483 170° South  Level Estimated
Tue 02:12:00 PM 14.6180 1.9685 170° South  Level Estimated
Tue 02:13:00 PM 14.5016 1.9886 170° South  Level Estimated
Tue 02:14:00 PM 14.3852 2.0088 170° South  Level Estimated
Tue 02:15:00 PM 14.2688 2.0289 170° South  Level Estimated
Tue 02:16:00 PM 14.1523 2.0490 170° South  Level Estimated
Tue 02:17:00 PM 14.0359 2.0691 170° South  Level Estimated
Tue 02:18:00 PM 13.9195 2.0892 171° South  Level Estimated
Tue 02:19:00 PM 13.8031 2.1092 171° South  Level Estimated
Tue 02:20:00 PM 13.6867 2.1293 171° South  Level Estimated
Tue 02:21:00 PM 13.5702 2.1493 171° South  Level Estimated
Tue 02:22:00 PM 13.4538 2.1693 171° South  Level Estimated
Tue 02:23:00 PM 13.3374 2.1892 171° South  Level Estimated
Tue 02:24:00 PM 13.2209 2.2092 171° South  Level Estimated
Tue 02:25:00 PM 13.1045 2.2291 171° South  Level Estimated
Tue 02:26:00 PM 12.9881 2.2490 171° South  Level Estimated
Tue 02:27:00 PM 12.8716 2.2689 171° South  Level Estimated
Tue 02:28:00 PM 12.7552 2.2888 171° South  Level Estimated
Tue 02:29:00 PM 12.6388 2.3086 171° South  Level Estimated
Tue 02:30:00 PM 12.5223 2.3285 171° South  Level Estimated
Tue 02:31:00 PM 12.4059 2.3483 171° South  Level Estimated
Tue 02:32:00 PM 12.2894 2.3681 171° South  Level Estimated
Tue 02:33:00 PM 12.1730 2.3879 171° South  Level Estimated
Tue 02:34:00 PM 12.0565 2.4076 171° South  Level Estimated
Tue 02:35:00 PM 11.9401 2.4274 171° South  Level Estimated
Tue 02:36:00 PM 11.8236 2.4471 171° South  Level Estimated
Tue 02:37:00 PM 11.7072 2.4668 171° South  Level Estimated
Tue 02:38:00 PM 11.5907 2.4865 171° South  Level Estimated
Tue 02:39:00 PM 11.4743 2.5062 171° South  Level Estimated
Tue 02:40:00 PM 11.3578 2.5259 171° South  Level Estimated
Tue 02:41:00 PM 11.2414 2.5455 171° South  Level Estimated
Tue 02:42:00 PM 11.1249 2.5652 171° South  Level Estimated
Tue 02:43:00 PM 11.0085 2.5848 171° South  Level Estimated
Tue 02:44:00 PM 10.8920 2.6044 171° South  Level Estimated
Tue 02:45:00 PM 10.7755 2.6240 171° South  Level Estimated
Tue 02:46:00 PM 10.6591 2.6435 171° South  Level Estimated
Tue 02:47:00 PM 10.5426 2.6631 171° South  Level Estimated
Tue 02:48:00 PM 10.4262 2.6826 171° South  Level Estimated
Tue 02:49:00 PM 10.3097 2.7022 171° South  Level Estimated
Tue 02:50:00 PM 10.1932 2.7217 171° South  Level Estimated
Tue 02:51:00 PM 10.0768 2.7412 171° South  Level Estimated
Tue 02:52:00 PM 9.9603 2.7606 171° South  Level Estimated
Tue 02:53:00 PM 9.8438 2.7801 171° South  Level Estimated
Tue 02:54:00 PM 9.7274 2.7996 171° South  Level Estimated
Tue 02:55:00 PM 9.6109 2.8190 171° South  Level Estimated
Tue 02:56:00 PM 9.4944 2.8384 171° South  Level Estimated
Tue 02:57:00 PM 9.3779 2.8579 171° South  Level Estimated
Tue 02:58:00 PM 9.2615 2.8773 171° South  Level Estimated
Tue 02:59:00 PM 9.1450 2.8967 171° South  Level Estimated
Tue 03:00:00 PM 9.0285 2.9160 171° South  Level Estimated
Tue 03:01:00 PM 8.9120 2.9354 171° South  Level Estimated
Tue 03:02:00 PM 8.7956 2.9548 171° South  Level Estimated
Tue 03:03:00 PM 8.6791 2.9741 171° South  Level Estimated
Tue 03:04:00 PM 8.5626 2.9934 171° South  Level Estimated
Tue 03:05:00 PM 8.4461 3.0127 171° South  Level Estimated
Tue 03:06:00 PM 8.3296 3.0321 171° South  Level Estimated
Tue 03:07:00 PM 8.2132 3.0514 171° South  Level Estimated
Tue 03:08:00 PM 8.0967 3.0706 171° South  Level Estimated
Tue 03:09:00 PM 7.9802 3.0899 171° South  Level Estimated
Tue 03:10:00 PM 7.8637 3.1092 171° South  Level Estimated
Tue 03:11:00 PM 7.7472 3.1284 171° South  Level Estimated
Tue 03:12:00 PM 7.6307 3.1477 171° South  Level Estimated
Tue 03:13:00 PM 7.5142 3.1669 171° South  Level Estimated
Tue 03:14:00 PM 7.3977 3.1861 171° South  Level Estimated
Tue 03:15:00 PM 7.2812 3.2053 171° South  Level Estimated
Tue 03:16:00 PM 7.1648 3.2245 171° South  Level Estimated
Tue 03:17:00 PM 7.0483 3.2437 171° South  Level Estimated
Tue 03:18:00 PM 6.9318 3.2629 171° South  Level Estimated
Tue 03:19:00 PM 6.8153 3.2820 171° South  Level Estimated
Tue 03:20:00 PM 6.6988 3.3012 171° South  Level Estimated
Tue 03:21:00 PM 6.5823 3.3203 171° South  Level Estimated
Tue 03:22:00 PM 6.5774 3.3212 171° South  Level Estimated
Tue 03:23:00 PM 6.5774 3.3212 256° West  Level Estimated
Tue 03:24:00 PM 6.5774 3.3212 256° West  Level Estimated
Tue 03:25:00 PM 6.5774 3.3212 256° West  Level Estimated
Tue 03:26:00 PM 6.5774 3.3212 256° West  Level Estimated
Tue 03:27:00 PM 6.5774 3.3212 256° West  Level Estimated
Tue 03:28:00 PM 6.5774 3.3212 256° West  Level Estimated
Tue 03:29:00 PM 6.5774 3.3212 256° West  Level Estimated
Tue 03:30:00 PM 6.5774 3.3212 256° West  Level Estimated
Tue 03:31:00 PM 6.5774 3.3212 256° West  Level Estimated
Tue 03:32:00 PM 6.5774 3.3212 256° West  Level Estimated
Tue 03:33:00 PM 6.5774 3.3212 256° West  Level Estimated
Tue 03:34:00 PM 6.5774 3.3212 256° West  Level Estimated
Tue 03:35:00 PM 6.5774 3.3212 256° West  Level Estimated
Tue 03:36:00 PM 6.5774 3.3212 256° West  Level Estimated
Tue 03:37:00 PM 6.5774 3.3212 256° West  Level Estimated

Login

Don't have an account? Register now (free) for customized features, flight alerts, and more!